sensor_id;sensor_type;location;lat;lon;timestamp;temperature;humidity
24217;DHT22;12356;49.386;8.688;2023-04-15T00:00:40;8.90;28.70
24217;DHT22;12356;49.386;8.688;2023-04-15T00:03:10;9.00;29.30
24217;DHT22;12356;49.386;8.688;2023-04-15T00:05:41;8.90;29.10
24217;DHT22;12356;49.386;8.688;2023-04-15T00:08:12;8.80;29.20
24217;DHT22;12356;49.386;8.688;2023-04-15T00:10:43;8.80;28.80
24217;DHT22;12356;49.386;8.688;2023-04-15T00:13:15;8.90;29.00
24217;DHT22;12356;49.386;8.688;2023-04-15T00:15:46;8.90;29.00
24217;DHT22;12356;49.386;8.688;2023-04-15T00:18:17;8.80;28.80
24217;DHT22;12356;49.386;8.688;2023-04-15T00:20:47;8.80;29.00
24217;DHT22;12356;49.386;8.688;2023-04-15T00:23:18;8.70;29.10
24217;DHT22;12356;49.386;8.688;2023-04-15T00:25:48;8.80;29.50
24217;DHT22;12356;49.386;8.688;2023-04-15T00:28:20;8.80;29.30
24217;DHT22;12356;49.386;8.688;2023-04-15T00:30:50;8.80;29.40
24217;DHT22;12356;49.386;8.688;2023-04-15T00:33:21;8.70;29.10
24217;DHT22;12356;49.386;8.688;2023-04-15T00:35:51;8.60;29.50
24217;DHT22;12356;49.386;8.688;2023-04-15T00:38:23;8.60;30.00
24217;DHT22;12356;49.386;8.688;2023-04-15T00:40:53;8.60;30.30
24217;DHT22;12356;49.386;8.688;2023-04-15T00:43:24;8.60;30.30
24217;DHT22;12356;49.386;8.688;2023-04-15T00:45:56;8.60;29.80
24217;DHT22;12356;49.386;8.688;2023-04-15T00:48:28;8.50;30.00
24217;DHT22;12356;49.386;8.688;2023-04-15T00:50:59;8.50;30.30
24217;DHT22;12356;49.386;8.688;2023-04-15T00:53:30;8.40;30.70
24217;DHT22;12356;49.386;8.688;2023-04-15T00:56:00;8.40;30.60
24217;DHT22;12356;49.386;8.688;2023-04-15T00:58:31;8.40;30.80
24217;DHT22;12356;49.386;8.688;2023-04-15T01:01:02;8.40;31.10
24217;DHT22;12356;49.386;8.688;2023-04-15T01:03:33;8.40;30.50
24217;DHT22;12356;49.386;8.688;2023-04-15T01:06:04;8.40;30.40
24217;DHT22;12356;49.386;8.688;2023-04-15T01:08:35;8.40;30.40
24217;DHT22;12356;49.386;8.688;2023-04-15T01:11:06;8.30;30.70
24217;DHT22;12356;49.386;8.688;2023-04-15T01:13:37;8.20;30.80
24217;DHT22;12356;49.386;8.688;2023-04-15T01:16:08;8.20;32.20
24217;DHT22;12356;49.386;8.688;2023-04-15T01:18:39;8.10;31.30
24217;DHT22;12356;49.386;8.688;2023-04-15T01:21:09;8.20;31.80
24217;DHT22;12356;49.386;8.688;2023-04-15T01:23:40;8.10;31.00
24217;DHT22;12356;49.386;8.688;2023-04-15T01:26:10;8.20;31.10
24217;DHT22;12356;49.386;8.688;2023-04-15T01:28:41;8.10;30.20
24217;DHT22;12356;49.386;8.688;2023-04-15T01:31:13;8.20;30.50
24217;DHT22;12356;49.386;8.688;2023-04-15T01:33:45;8.10;30.70
24217;DHT22;12356;49.386;8.688;2023-04-15T01:36:16;8.10;30.30
24217;DHT22;12356;49.386;8.688;2023-04-15T01:38:47;8.10;30.40
24217;DHT22;12356;49.386;8.688;2023-04-15T01:41:24;8.20;30.90
24217;DHT22;12356;49.386;8.688;2023-04-15T01:43:54;8.20;30.90
24217;DHT22;12356;49.386;8.688;2023-04-15T01:46:26;8.10;31.00
24217;DHT22;12356;49.386;8.688;2023-04-15T01:48:56;8.10;31.60
24217;DHT22;12356;49.386;8.688;2023-04-15T01:51:27;8.10;31.80
24217;DHT22;12356;49.386;8.688;2023-04-15T01:53:58;8.00;32.10
24217;DHT22;12356;49.386;8.688;2023-04-15T01:56:28;8.00;31.90
24217;DHT22;12356;49.386;8.688;2023-04-15T01:58:59;8.00;31.70
24217;DHT22;12356;49.386;8.688;2023-04-15T02:01:29;8.00;31.50
24217;DHT22;12356;49.386;8.688;2023-04-15T02:04:00;7.90;31.80
24217;DHT22;12356;49.386;8.688;2023-04-15T02:06:31;7.90;31.80
24217;DHT22;12356;49.386;8.688;2023-04-15T02:09:01;7.80;31.80
24217;DHT22;12356;49.386;8.688;2023-04-15T02:11:33;7.90;31.80
24217;DHT22;12356;49.386;8.688;2023-04-15T02:14:05;7.90;31.50
24217;DHT22;12356;49.386;8.688;2023-04-15T02:16:35;7.90;31.40
24217;DHT22;12356;49.386;8.688;2023-04-15T02:19:06;7.90;31.30
24217;DHT22;12356;49.386;8.688;2023-04-15T02:21:37;7.90;31.70
24217;DHT22;12356;49.386;8.688;2023-04-15T02:24:07;7.90;32.00
24217;DHT22;12356;49.386;8.688;2023-04-15T02:26:38;7.80;33.00
24217;DHT22;12356;49.386;8.688;2023-04-15T02:29:08;7.80;32.70
24217;DHT22;12356;49.386;8.688;2023-04-15T02:31:39;7.70;33.50
24217;DHT22;12356;49.386;8.688;2023-04-15T02:34:11;7.70;33.30
24217;DHT22;12356;49.386;8.688;2023-04-15T02:36:43;7.70;32.40
24217;DHT22;12356;49.386;8.688;2023-04-15T02:39:14;7.60;33.00
24217;DHT22;12356;49.386;8.688;2023-04-15T02:41:48;7.70;33.40
24217;DHT22;12356;49.386;8.688;2023-04-15T02:44:21;7.70;33.80
24217;DHT22;12356;49.386;8.688;2023-04-15T02:46:54;7.60;33.80
24217;DHT22;12356;49.386;8.688;2023-04-15T02:49:25;7.60;33.70
24217;DHT22;12356;49.386;8.688;2023-04-15T02:51:55;7.60;33.50
24217;DHT22;12356;49.386;8.688;2023-04-15T02:54:28;7.50;33.50
24217;DHT22;12356;49.386;8.688;2023-04-15T02:56:58;7.50;34.00
24217;DHT22;12356;49.386;8.688;2023-04-15T02:59:29;7.40;33.80
24217;DHT22;12356;49.386;8.688;2023-04-15T03:01:59;7.40;34.40
24217;DHT22;12356;49.386;8.688;2023-04-15T03:04:30;7.50;34.40
24217;DHT22;12356;49.386;8.688;2023-04-15T03:07:01;7.50;34.70
24217;DHT22;12356;49.386;8.688;2023-04-15T03:09:31;7.50;34.20
24217;DHT22;12356;49.386;8.688;2023-04-15T03:12:02;7.50;34.40
24217;DHT22;12356;49.386;8.688;2023-04-15T03:14:33;7.50;34.30
24217;DHT22;12356;49.386;8.688;2023-04-15T03:17:03;7.50;33.90
24217;DHT22;12356;49.386;8.688;2023-04-15T03:19:34;7.50;34.20
24217;DHT22;12356;49.386;8.688;2023-04-15T03:22:04;7.50;33.90
24217;DHT22;12356;49.386;8.688;2023-04-15T03:24:35;7.50;33.60
24217;DHT22;12356;49.386;8.688;2023-04-15T03:27:06;7.50;34.60
24217;DHT22;12356;49.386;8.688;2023-04-15T03:29:37;7.40;34.70
24217;DHT22;12356;49.386;8.688;2023-04-15T03:32:07;7.40;34.60
24217;DHT22;12356;49.386;8.688;2023-04-15T03:34:38;7.40;34.80
24217;DHT22;12356;49.386;8.688;2023-04-15T03:37:08;7.40;34.90
24217;DHT22;12356;49.386;8.688;2023-04-15T03:39:39;7.40;35.40
24217;DHT22;12356;49.386;8.688;2023-04-15T03:42:09;7.30;35.50
24217;DHT22;12356;49.386;8.688;2023-04-15T03:44:40;7.30;35.60
24217;DHT22;12356;49.386;8.688;2023-04-15T03:47:10;7.30;35.70
24217;DHT22;12356;49.386;8.688;2023-04-15T03:49:41;7.30;35.50
24217;DHT22;12356;49.386;8.688;2023-04-15T03:52:11;7.30;35.00
24217;DHT22;12356;49.386;8.688;2023-04-15T03:54:42;7.30;35.90
24217;DHT22;12356;49.386;8.688;2023-04-15T03:57:12;7.30;36.30
24217;DHT22;12356;49.386;8.688;2023-04-15T03:59:43;7.30;36.10
24217;DHT22;12356;49.386;8.688;2023-04-15T04:02:13;7.30;36.30
24217;DHT22;12356;49.386;8.688;2023-04-15T04:04:44;7.20;36.20
24217;DHT22;12356;49.386;8.688;2023-04-15T04:07:15;7.30;36.30
24217;DHT22;12356;49.386;8.688;2023-04-15T04:09:46;7.30;35.00
24217;DHT22;12356;49.386;8.688;2023-04-15T04:12:16;7.40;35.00
24217;DHT22;12356;49.386;8.688;2023-04-15T04:14:47;7.30;35.40
24217;DHT22;12356;49.386;8.688;2023-04-15T04:17:17;7.30;35.80
24217;DHT22;12356;49.386;8.688;2023-04-15T04:19:48;7.30;35.50
24217;DHT22;12356;49.386;8.688;2023-04-15T04:22:22;7.30;34.90
24217;DHT22;12356;49.386;8.688;2023-04-15T04:24:53;7.30;35.70
24217;DHT22;12356;49.386;8.688;2023-04-15T04:27:24;7.20;35.40
24217;DHT22;12356;49.386;8.688;2023-04-15T04:29:55;7.30;35.10
24217;DHT22;12356;49.386;8.688;2023-04-15T04:32:26;7.20;35.20
24217;DHT22;12356;49.386;8.688;2023-04-15T04:34:57;7.30;35.40
24217;DHT22;12356;49.386;8.688;2023-04-15T04:37:27;7.40;34.70
24217;DHT22;12356;49.386;8.688;2023-04-15T04:39:58;7.20;35.30
24217;DHT22;12356;49.386;8.688;2023-04-15T04:42:28;7.20;35.20
24217;DHT22;12356;49.386;8.688;2023-04-15T04:44:59;7.10;34.70
24217;DHT22;12356;49.386;8.688;2023-04-15T04:47:29;7.10;35.50
24217;DHT22;12356;49.386;8.688;2023-04-15T04:50:00;7.10;35.30
24217;DHT22;12356;49.386;8.688;2023-04-15T04:52:31;7.10;35.10
24217;DHT22;12356;49.386;8.688;2023-04-15T04:55:01;7.10;34.90
24217;DHT22;12356;49.386;8.688;2023-04-15T04:57:32;7.00;34.60
24217;DHT22;12356;49.386;8.688;2023-04-15T05:00:05;7.10;34.30
24217;DHT22;12356;49.386;8.688;2023-04-15T05:02:37;7.10;34.70
24217;DHT22;12356;49.386;8.688;2023-04-15T05:05:09;7.20;33.80
24217;DHT22;12356;49.386;8.688;2023-04-15T05:07:39;7.20;33.00
24217;DHT22;12356;49.386;8.688;2023-04-15T05:10:10;7.20;32.80
24217;DHT22;12356;49.386;8.688;2023-04-15T05:12:40;7.20;32.90
24217;DHT22;12356;49.386;8.688;2023-04-15T05:15:11;7.20;33.00
24217;DHT22;12356;49.386;8.688;2023-04-15T05:17:41;7.20;33.20
24217;DHT22;12356;49.386;8.688;2023-04-15T05:20:12;7.20;32.90
24217;DHT22;12356;49.386;8.688;2023-04-15T05:22:43;7.20;33.20
24217;DHT22;12356;49.386;8.688;2023-04-15T05:25:14;7.20;32.80
24217;DHT22;12356;49.386;8.688;2023-04-15T05:27:45;7.20;33.10
24217;DHT22;12356;49.386;8.688;2023-04-15T05:30:16;7.20;33.60
24217;DHT22;12356;49.386;8.688;2023-04-15T05:32:47;7.10;33.50
24217;DHT22;12356;49.386;8.688;2023-04-15T05:35:17;7.20;34.00
24217;DHT22;12356;49.386;8.688;2023-04-15T05:37:48;7.10;33.70
24217;DHT22;12356;49.386;8.688;2023-04-15T05:40:18;7.20;33.50
24217;DHT22;12356;49.386;8.688;2023-04-15T05:42:49;7.10;33.90
24217;DHT22;12356;49.386;8.688;2023-04-15T05:45:20;7.10;34.30
24217;DHT22;12356;49.386;8.688;2023-04-15T05:47:51;7.10;34.50
24217;DHT22;12356;49.386;8.688;2023-04-15T05:50:23;7.00;34.70
24217;DHT22;12356;49.386;8.688;2023-04-15T05:52:54;7.00;35.20
24217;DHT22;12356;49.386;8.688;2023-04-15T05:55:25;7.10;35.30
24217;DHT22;12356;49.386;8.688;2023-04-15T05:57:55;7.10;35.60
24217;DHT22;12356;49.386;8.688;2023-04-15T06:00:26;7.00;36.00
24217;DHT22;12356;49.386;8.688;2023-04-15T06:02:57;7.10;36.10
24217;DHT22;12356;49.386;8.688;2023-04-15T06:05:28;7.10;35.80
24217;DHT22;12356;49.386;8.688;2023-04-15T06:07:58;7.20;35.50
24217;DHT22;12356;49.386;8.688;2023-04-15T06:10:29;7.20;35.20
24217;DHT22;12356;49.386;8.688;2023-04-15T06:13:00;7.20;35.00
24217;DHT22;12356;49.386;8.688;2023-04-15T06:15:31;7.20;35.30
24217;DHT22;12356;49.386;8.688;2023-04-15T06:18:01;7.20;35.80
24217;DHT22;12356;49.386;8.688;2023-04-15T06:20:32;7.30;35.80
24217;DHT22;12356;49.386;8.688;2023-04-15T06:23:03;7.30;35.80
24217;DHT22;12356;49.386;8.688;2023-04-15T06:25:33;7.30;35.80
24217;DHT22;12356;49.386;8.688;2023-04-15T06:28:04;7.30;35.90
24217;DHT22;12356;49.386;8.688;2023-04-15T06:30:34;7.30;36.00
24217;DHT22;12356;49.386;8.688;2023-04-15T06:33:05;7.40;36.30
24217;DHT22;12356;49.386;8.688;2023-04-15T06:35:36;7.40;36.40
24217;DHT22;12356;49.386;8.688;2023-04-15T06:38:07;7.50;36.60
24217;DHT22;12356;49.386;8.688;2023-04-15T06:40:37;7.60;36.80
24217;DHT22;12356;49.386;8.688;2023-04-15T06:43:08;7.60;36.60
24217;DHT22;12356;49.386;8.688;2023-04-15T06:45:39;7.60;36.60
24217;DHT22;12356;49.386;8.688;2023-04-15T06:48:10;7.70;36.60
24217;DHT22;12356;49.386;8.688;2023-04-15T06:50:41;7.80;36.10
24217;DHT22;12356;49.386;8.688;2023-04-15T06:53:11;7.80;36.00
24217;DHT22;12356;49.386;8.688;2023-04-15T06:55:42;7.90;35.90
24217;DHT22;12356;49.386;8.688;2023-04-15T06:58:12;7.90;35.20
24217;DHT22;12356;49.386;8.688;2023-04-15T07:00:43;8.00;34.20
24217;DHT22;12356;49.386;8.688;2023-04-15T07:03:14;8.10;35.30
24217;DHT22;12356;49.386;8.688;2023-04-15T07:05:44;8.10;36.10
24217;DHT22;12356;49.386;8.688;2023-04-15T07:08:15;8.20;35.40
24217;DHT22;12356;49.386;8.688;2023-04-15T07:10:46;8.30;34.50
24217;DHT22;12356;49.386;8.688;2023-04-15T07:13:16;8.40;33.90
24217;DHT22;12356;49.386;8.688;2023-04-15T07:15:47;8.50;33.90
24217;DHT22;12356;49.386;8.688;2023-04-15T07:18:17;8.60;34.30
24217;DHT22;12356;49.386;8.688;2023-04-15T07:20:48;8.70;32.60
24217;DHT22;12356;49.386;8.688;2023-04-15T07:23:18;8.70;32.20
24217;DHT22;12356;49.386;8.688;2023-04-15T07:25:49;8.80;33.50
24217;DHT22;12356;49.386;8.688;2023-04-15T07:28:19;8.90;32.80
24217;DHT22;12356;49.386;8.688;2023-04-15T07:30:50;8.90;30.30
24217;DHT22;12356;49.386;8.688;2023-04-15T07:33:21;9.10;31.10
24217;DHT22;12356;49.386;8.688;2023-04-15T07:35:51;9.10;30.70
24217;DHT22;12356;49.386;8.688;2023-04-15T07:38:22;9.20;30.70
24217;DHT22;12356;49.386;8.688;2023-04-15T07:40:53;9.20;30.50
24217;DHT22;12356;49.386;8.688;2023-04-15T07:43:24;9.30;30.70
24217;DHT22;12356;49.386;8.688;2023-04-15T07:45:54;9.40;30.30
24217;DHT22;12356;49.386;8.688;2023-04-15T07:48:25;9.50;29.40
24217;DHT22;12356;49.386;8.688;2023-04-15T07:50:55;9.50;29.80
24217;DHT22;12356;49.386;8.688;2023-04-15T07:53:26;9.60;31.10
24217;DHT22;12356;49.386;8.688;2023-04-15T07:55:56;9.60;31.80
24217;DHT22;12356;49.386;8.688;2023-04-15T07:58:27;9.70;30.40
24217;DHT22;12356;49.386;8.688;2023-04-15T08:00:58;9.80;29.30
24217;DHT22;12356;49.386;8.688;2023-04-15T08:03:28;9.90;29.40
24217;DHT22;12356;49.386;8.688;2023-04-15T08:05:59;10.00;27.30
24217;DHT22;12356;49.386;8.688;2023-04-15T08:08:29;10.10;28.20
24217;DHT22;12356;49.386;8.688;2023-04-15T08:11:00;10.20;26.80
24217;DHT22;12356;49.386;8.688;2023-04-15T08:13:31;10.30;27.30
24217;DHT22;12356;49.386;8.688;2023-04-15T08:16:25;10.40;27.40
24217;DHT22;12356;49.386;8.688;2023-04-15T08:18:57;10.40;26.90
24217;DHT22;12356;49.386;8.688;2023-04-15T08:21:27;10.50;27.10
24217;DHT22;12356;49.386;8.688;2023-04-15T08:24:00;10.50;26.70
24217;DHT22;12356;49.386;8.688;2023-04-15T08:26:31;10.60;26.30
24217;DHT22;12356;49.386;8.688;2023-04-15T08:29:01;10.50;25.00
24217;DHT22;12356;49.386;8.688;2023-04-15T08:31:32;10.60;24.90
24217;DHT22;12356;49.386;8.688;2023-04-15T08:34:02;10.60;25.40
24217;DHT22;12356;49.386;8.688;2023-04-15T08:36:33;10.70;24.80
24217;DHT22;12356;49.386;8.688;2023-04-15T08:39:04;10.80;23.10
24217;DHT22;12356;49.386;8.688;2023-04-15T08:41:59;10.80;22.90
24217;DHT22;12356;49.386;8.688;2023-04-15T08:44:33;11.00;24.60
24217;DHT22;12356;49.386;8.688;2023-04-15T08:47:07;11.10;26.20
24217;DHT22;12356;49.386;8.688;2023-04-15T08:49:42;11.20;26.10
24217;DHT22;12356;49.386;8.688;2023-04-15T08:52:12;11.20;24.90
24217;DHT22;12356;49.386;8.688;2023-04-15T08:54:43;11.40;23.90
24217;DHT22;12356;49.386;8.688;2023-04-15T08:57:14;11.40;22.40
24217;DHT22;12356;49.386;8.688;2023-04-15T08:59:46;11.50;20.90
24217;DHT22;12356;49.386;8.688;2023-04-15T09:02:17;11.50;21.00
24217;DHT22;12356;49.386;8.688;2023-04-15T09:04:47;11.50;18.70
24217;DHT22;12356;49.386;8.688;2023-04-15T09:07:18;11.50;19.20
24217;DHT22;12356;49.386;8.688;2023-04-15T09:09:48;11.60;17.20
24217;DHT22;12356;49.386;8.688;2023-04-15T09:12:19;11.70;16.80
24217;DHT22;12356;49.386;8.688;2023-04-15T09:14:50;11.70;15.60
24217;DHT22;12356;49.386;8.688;2023-04-15T09:17:21;11.80;14.50
24217;DHT22;12356;49.386;8.688;2023-04-15T09:20:08;11.80;15.00
24217;DHT22;12356;49.386;8.688;2023-04-15T09:22:40;11.80;15.80
24217;DHT22;12356;49.386;8.688;2023-04-15T09:25:24;11.80;16.50
24217;DHT22;12356;49.386;8.688;2023-04-15T09:28:00;11.90;17.10
24217;DHT22;12356;49.386;8.688;2023-04-15T09:30:31;12.00;16.10
24217;DHT22;12356;49.386;8.688;2023-04-15T09:33:03;12.00;15.60
24217;DHT22;12356;49.386;8.688;2023-04-15T09:35:40;12.10;16.20
24217;DHT22;12356;49.386;8.688;2023-04-15T09:38:10;12.10;16.10
24217;DHT22;12356;49.386;8.688;2023-04-15T09:40:42;12.10;15.60
24217;DHT22;12356;49.386;8.688;2023-04-15T09:43:12;12.10;16.60
24217;DHT22;12356;49.386;8.688;2023-04-15T09:45:48;12.20;17.00
24217;DHT22;12356;49.386;8.688;2023-04-15T09:48:23;12.20;16.50
24217;DHT22;12356;49.386;8.688;2023-04-15T09:50:59;12.20;16.10
24217;DHT22;12356;49.386;8.688;2023-04-15T09:53:33;12.30;16.50
24217;DHT22;12356;49.386;8.688;2023-04-15T09:56:04;12.30;16.60
24217;DHT22;12356;49.386;8.688;2023-04-15T09:58:37;12.40;17.60
24217;DHT22;12356;49.386;8.688;2023-04-15T10:01:08;12.40;18.50
24217;DHT22;12356;49.386;8.688;2023-04-15T10:03:40;12.50;16.70
24217;DHT22;12356;49.386;8.688;2023-04-15T10:06:11;12.60;16.00
24217;DHT22;12356;49.386;8.688;2023-04-15T10:08:42;12.80;14.40
24217;DHT22;12356;49.386;8.688;2023-04-15T10:11:13;12.90;14.40
24217;DHT22;12356;49.386;8.688;2023-04-15T10:13:44;13.00;12.10
24217;DHT22;12356;49.386;8.688;2023-04-15T10:16:18;13.10;12.10
24217;DHT22;12356;49.386;8.688;2023-04-15T10:18:53;13.20;12.60
24217;DHT22;12356;49.386;8.688;2023-04-15T10:21:24;13.20;12.30
24217;DHT22;12356;49.386;8.688;2023-04-15T10:23:57;13.20;11.90
24217;DHT22;12356;49.386;8.688;2023-04-15T10:26:28;13.30;11.50
24217;DHT22;12356;49.386;8.688;2023-04-15T10:28:59;13.30;11.30
24217;DHT22;12356;49.386;8.688;2023-04-15T10:31:30;13.30;11.30
24217;DHT22;12356;49.386;8.688;2023-04-15T10:34:01;13.40;11.80
24217;DHT22;12356;49.386;8.688;2023-04-15T10:36:36;13.40;12.00
24217;DHT22;12356;49.386;8.688;2023-04-15T10:42:12;13.60;12.40
24217;DHT22;12356;49.386;8.688;2023-04-15T10:44:55;13.60;12.00
24217;DHT22;12356;49.386;8.688;2023-04-15T10:47:26;13.70;12.10
24217;DHT22;12356;49.386;8.688;2023-04-15T10:49:59;13.70;10.40
24217;DHT22;12356;49.386;8.688;2023-04-15T10:52:30;13.70;8.70
24217;DHT22;12356;49.386;8.688;2023-04-15T10:57:41;13.70;8.20
24217;DHT22;12356;49.386;8.688;2023-04-15T11:00:14;13.60;8.80
24217;DHT22;12356;49.386;8.688;2023-04-15T11:05:16;13.70;7.90
24217;DHT22;12356;49.386;8.688;2023-04-15T11:07:53;13.70;8.00
24217;DHT22;12356;49.386;8.688;2023-04-15T11:13:03;13.90;7.40
24217;DHT22;12356;49.386;8.688;2023-04-15T11:15:36;13.90;7.30
24217;DHT22;12356;49.386;8.688;2023-04-15T11:18:13;13.90;6.20
24217;DHT22;12356;49.386;8.688;2023-04-15T11:25:59;13.80;4.10
24217;DHT22;12356;49.386;8.688;2023-04-15T11:28:31;13.80;4.30
24217;DHT22;12356;49.386;8.688;2023-04-15T11:31:16;13.80;4.30
24217;DHT22;12356;49.386;8.688;2023-04-15T11:33:57;13.70;4.40
24217;DHT22;12356;49.386;8.688;2023-04-15T11:36:31;13.70;4.20
24217;DHT22;12356;49.386;8.688;2023-04-15T11:39:06;13.60;3.60
24217;DHT22;12356;49.386;8.688;2023-04-15T11:41:36;13.60;2.90
24217;DHT22;12356;49.386;8.688;2023-04-15T11:44:15;13.60;2.70
24217;DHT22;12356;49.386;8.688;2023-04-15T11:46:46;13.50;2.60
24217;DHT22;12356;49.386;8.688;2023-04-15T11:49:28;13.50;3.10
24217;DHT22;12356;49.386;8.688;2023-04-15T11:51:58;13.50;2.60
24217;DHT22;12356;49.386;8.688;2023-04-15T11:54:30;13.50;2.60
24217;DHT22;12356;49.386;8.688;2023-04-15T11:57:01;13.40;2.30
24217;DHT22;12356;49.386;8.688;2023-04-15T11:59:42;13.40;2.00
24217;DHT22;12356;49.386;8.688;2023-04-15T12:02:12;13.50;3.70
24217;DHT22;12356;49.386;8.688;2023-04-15T12:04:43;13.50;2.00
24217;DHT22;12356;49.386;8.688;2023-04-15T12:07:15;13.50;1.40
24217;DHT22;12356;49.386;8.688;2023-04-15T12:09:54;13.50;1.00
24217;DHT22;12356;49.386;8.688;2023-04-15T12:12:27;13.50;1.10
24217;DHT22;12356;49.386;8.688;2023-04-15T12:14:57;13.60;1.10
24217;DHT22;12356;49.386;8.688;2023-04-15T12:17:29;13.60;1.90
24217;DHT22;12356;49.386;8.688;2023-04-15T12:20:00;13.70;1.00
24217;DHT22;12356;49.386;8.688;2023-04-15T12:22:36;13.70;1.50
24217;DHT22;12356;49.386;8.688;2023-04-15T12:25:07;13.70;1.00
24217;DHT22;12356;49.386;8.688;2023-04-15T12:27:37;13.70;1.00
24217;DHT22;12356;49.386;8.688;2023-04-15T12:30:08;13.70;1.00
24217;DHT22;12356;49.386;8.688;2023-04-15T12:32:40;13.60;1.00
24217;DHT22;12356;49.386;8.688;2023-04-15T12:35:12;13.60;1.00
24217;DHT22;12356;49.386;8.688;2023-04-15T12:37:42;13.50;1.00
24217;DHT22;12356;49.386;8.688;2023-04-15T12:40:13;13.50;1.00
24217;DHT22;12356;49.386;8.688;2023-04-15T12:42:43;13.50;1.00
24217;DHT22;12356;49.386;8.688;2023-04-15T12:45:14;13.50;1.00
24217;DHT22;12356;49.386;8.688;2023-04-15T12:47:44;13.50;1.00
24217;DHT22;12356;49.386;8.688;2023-04-15T12:50:15;13.40;1.00
24217;DHT22;12356;49.386;8.688;2023-04-15T12:52:47;13.40;1.00
24217;DHT22;12356;49.386;8.688;2023-04-15T12:55:17;13.40;1.00
24217;DHT22;12356;49.386;8.688;2023-04-15T12:57:48;13.40;1.00
24217;DHT22;12356;49.386;8.688;2023-04-15T13:00:18;13.40;1.00
24217;DHT22;12356;49.386;8.688;2023-04-15T13:02:49;13.30;1.00
24217;DHT22;12356;49.386;8.688;2023-04-15T13:05:19;13.30;1.00
24217;DHT22;12356;49.386;8.688;2023-04-15T13:07:50;13.30;1.00
24217;DHT22;12356;49.386;8.688;2023-04-15T13:10:20;13.30;1.00
24217;DHT22;12356;49.386;8.688;2023-04-15T13:12:51;13.30;1.00
24217;DHT22;12356;49.386;8.688;2023-04-15T13:15:23;13.30;1.00
24217;DHT22;12356;49.386;8.688;2023-04-15T13:17:53;13.30;1.30
24217;DHT22;12356;49.386;8.688;2023-04-15T13:20:24;13.40;1.00
24217;DHT22;12356;49.386;8.688;2023-04-15T13:22:56;13.40;1.00
24217;DHT22;12356;49.386;8.688;2023-04-15T13:25:26;13.50;1.00
24217;DHT22;12356;49.386;8.688;2023-04-15T13:27:57;13.40;1.00
24217;DHT22;12356;49.386;8.688;2023-04-15T13:30:28;13.40;1.00
24217;DHT22;12356;49.386;8.688;2023-04-15T13:32:58;13.40;1.00
24217;DHT22;12356;49.386;8.688;2023-04-15T13:35:29;13.40;1.00
24217;DHT22;12356;49.386;8.688;2023-04-15T13:38:00;13.40;1.00
24217;DHT22;12356;49.386;8.688;2023-04-15T13:40:31;13.40;1.00
24217;DHT22;12356;49.386;8.688;2023-04-15T13:43:01;13.40;1.00
24217;DHT22;12356;49.386;8.688;2023-04-15T13:45:32;13.40;1.00
24217;DHT22;12356;49.386;8.688;2023-04-15T13:48:03;13.50;1.00
24217;DHT22;12356;49.386;8.688;2023-04-15T13:50:34;13.40;1.00
24217;DHT22;12356;49.386;8.688;2023-04-15T13:53:04;13.40;1.00
24217;DHT22;12356;49.386;8.688;2023-04-15T13:55:35;13.40;1.00
24217;DHT22;12356;49.386;8.688;2023-04-15T13:58:10;13.40;1.00
24217;DHT22;12356;49.386;8.688;2023-04-15T14:00:40;13.40;1.00
24217;DHT22;12356;49.386;8.688;2023-04-15T14:03:11;13.30;1.00
24217;DHT22;12356;49.386;8.688;2023-04-15T14:05:41;13.30;1.70
24217;DHT22;12356;49.386;8.688;2023-04-15T14:08:12;13.20;1.80
24217;DHT22;12356;49.386;8.688;2023-04-15T14:10:43;13.30;1.70
24217;DHT22;12356;49.386;8.688;2023-04-15T14:13:17;13.30;1.00
24217;DHT22;12356;49.386;8.688;2023-04-15T14:15:48;13.30;1.00
24217;DHT22;12356;49.386;8.688;2023-04-15T14:18:19;13.40;1.00
24217;DHT22;12356;49.386;8.688;2023-04-15T14:20:50;13.50;1.00
24217;DHT22;12356;49.386;8.688;2023-04-15T14:23:21;13.50;2.00
24217;DHT22;12356;49.386;8.688;2023-04-15T14:25:52;13.50;1.80
24217;DHT22;12356;49.386;8.688;2023-04-15T14:28:23;13.40;2.00
24217;DHT22;12356;49.386;8.688;2023-04-15T14:30:54;13.40;2.50
24217;DHT22;12356;49.386;8.688;2023-04-15T14:33:24;13.40;2.50
24217;DHT22;12356;49.386;8.688;2023-04-15T14:35:55;13.40;3.00
24217;DHT22;12356;49.386;8.688;2023-04-15T14:38:26;13.30;4.30
24217;DHT22;12356;49.386;8.688;2023-04-15T14:40:57;13.30;5.00
24217;DHT22;12356;49.386;8.688;2023-04-15T14:43:27;13.20;5.80
24217;DHT22;12356;49.386;8.688;2023-04-15T14:45:58;13.10;6.60
24217;DHT22;12356;49.386;8.688;2023-04-15T14:48:30;13.10;7.50
24217;DHT22;12356;49.386;8.688;2023-04-15T14:51:01;13.00;8.50
24217;DHT22;12356;49.386;8.688;2023-04-15T14:53:32;13.00;9.30
24217;DHT22;12356;49.386;8.688;2023-04-15T14:56:02;12.90;10.30
24217;DHT22;12356;49.386;8.688;2023-04-15T14:58:33;12.90;11.60
24217;DHT22;12356;49.386;8.688;2023-04-15T15:01:04;12.70;12.20
24217;DHT22;12356;49.386;8.688;2023-04-15T15:03:34;12.70;13.30
24217;DHT22;12356;49.386;8.688;2023-04-15T15:06:05;12.60;14.00
24217;DHT22;12356;49.386;8.688;2023-04-15T15:08:36;12.60;14.90
24217;DHT22;12356;49.386;8.688;2023-04-15T15:11:06;12.50;15.20
24217;DHT22;12356;49.386;8.688;2023-04-15T15:13:37;12.50;16.60
24217;DHT22;12356;49.386;8.688;2023-04-15T15:16:08;12.50;17.50
24217;DHT22;12356;49.386;8.688;2023-04-15T15:18:38;12.40;17.40
24217;DHT22;12356;49.386;8.688;2023-04-15T15:21:09;12.30;17.70
24217;DHT22;12356;49.386;8.688;2023-04-15T15:23:40;12.30;18.30
24217;DHT22;12356;49.386;8.688;2023-04-15T15:26:11;12.20;18.50
24217;DHT22;12356;49.386;8.688;2023-04-15T15:28:41;12.10;19.00
24217;DHT22;12356;49.386;8.688;2023-04-15T15:31:13;12.00;19.90
24217;DHT22;12356;49.386;8.688;2023-04-15T15:33:43;12.00;20.40
24217;DHT22;12356;49.386;8.688;2023-04-15T15:36:15;11.90;21.40
24217;DHT22;12356;49.386;8.688;2023-04-15T15:38:45;11.80;22.10
24217;DHT22;12356;49.386;8.688;2023-04-15T15:41:16;11.70;23.10
24217;DHT22;12356;49.386;8.688;2023-04-15T15:43:47;11.70;25.60
24217;DHT22;12356;49.386;8.688;2023-04-15T15:46:17;11.70;25.00
24217;DHT22;12356;49.386;8.688;2023-04-15T15:48:48;11.60;26.90
24217;DHT22;12356;49.386;8.688;2023-04-15T15:51:19;11.60;26.50
24217;DHT22;12356;49.386;8.688;2023-04-15T15:53:50;11.60;27.30
24217;DHT22;12356;49.386;8.688;2023-04-15T15:56:20;11.60;29.80
24217;DHT22;12356;49.386;8.688;2023-04-15T15:58:51;11.60;30.10
24217;DHT22;12356;49.386;8.688;2023-04-15T16:01:22;11.50;29.40
24217;DHT22;12356;49.386;8.688;2023-04-15T16:03:52;11.40;29.90
24217;DHT22;12356;49.386;8.688;2023-04-15T16:06:23;11.40;31.50
24217;DHT22;12356;49.386;8.688;2023-04-15T16:08:53;11.30;32.40
24217;DHT22;12356;49.386;8.688;2023-04-15T16:11:24;11.20;32.90
24217;DHT22;12356;49.386;8.688;2023-04-15T16:13:54;11.20;33.70
24217;DHT22;12356;49.386;8.688;2023-04-15T16:16:25;11.10;34.50
24217;DHT22;12356;49.386;8.688;2023-04-15T16:18:58;11.10;36.90
24217;DHT22;12356;49.386;8.688;2023-04-15T16:21:29;11.10;37.30
24217;DHT22;12356;49.386;8.688;2023-04-15T16:24:01;11.00;38.00